createdAt,value
2022-12-04T00:00:05.213Z,637
2022-12-04T00:01:07.707Z,637.2
2022-12-04T00:02:09.652Z,637.7
2022-12-04T00:03:11.931Z,637.7
2022-12-04T00:04:14.802Z,637.6
2022-12-04T00:05:17.335Z,637.7
2022-12-04T00:06:19.568Z,637.7
2022-12-04T00:07:21.769Z,638.1
2022-12-04T00:08:24.271Z,637.9
2022-12-04T00:09:26.762Z,637.8
2022-12-04T00:10:29.232Z,637.8
2022-12-04T00:11:31.724Z,638.1
2022-12-04T00:12:34.289Z,638.3
2022-12-04T00:13:36.769Z,637.9
2022-12-04T00:15:44.242Z,637.3
2022-12-04T00:16:47.080Z,637.8
2022-12-04T00:17:49.312Z,637.6
2022-12-04T00:18:51.320Z,637.4
2022-12-04T00:19:55.803Z,637.2
2022-12-04T00:20:58.168Z,636.9
2022-12-04T00:22:00.684Z,636.9
2022-12-04T00:23:02.901Z,636.5
2022-12-04T00:24:05.420Z,636.4
2022-12-04T00:25:07.620Z,636.7
2022-12-04T00:26:10.095Z,636.9
2022-12-04T00:27:12.299Z,637
2022-12-04T00:28:14.860Z,637.3
2022-12-04T00:29:17.090Z,637.8
2022-12-04T00:30:19.564Z,637.7
2022-12-04T00:31:22.633Z,637.4
2022-12-04T00:32:25.139Z,637.2
2022-12-04T00:33:27.339Z,637.9
2022-12-04T00:34:29.820Z,637.8
2022-12-04T00:35:32.026Z,638.2
2022-12-04T00:36:34.229Z,637.7
2022-12-04T00:37:36.702Z,638.1
2022-12-04T00:38:38.905Z,638.6
2022-12-04T00:39:41.394Z,638.6
2022-12-04T00:40:43.893Z,638.2
2022-12-04T00:41:45.796Z,637.9
2022-12-04T00:42:48.021Z,637
2022-12-04T00:43:50.597Z,637.2
2022-12-04T00:44:52.793Z,636.6
2022-12-04T00:45:55.803Z,636.8
2022-12-04T00:46:58.042Z,636.2
2022-12-04T00:48:00.525Z,636.1
2022-12-04T00:49:03.097Z,636.5
2022-12-04T00:50:05.577Z,636.6
2022-12-04T00:51:08.061Z,637.2
2022-12-04T00:52:10.535Z,636.8
2022-12-04T00:53:13.077Z,636.9
2022-12-04T00:54:15.563Z,637.2
2022-12-04T00:55:18.074Z,637.6
2022-12-04T00:56:20.817Z,638.1
2022-12-04T00:57:23.291Z,637.3
2022-12-04T00:58:24.939Z,637.7
2022-12-04T00:59:27.524Z,637.4
2022-12-04T01:00:29.995Z,637.3
2022-12-04T01:01:33.136Z,637.6
2022-12-04T01:02:36.165Z,637.6
2022-12-04T01:03:38.488Z,637.4
2022-12-04T01:04:40.983Z,637.7
2022-12-04T01:05:43.484Z,637.4
2022-12-04T01:06:45.957Z,637.9
2022-12-04T01:07:48.382Z,638.4
2022-12-04T01:08:50.617Z,637.9
2022-12-04T01:09:53.820Z,637.7
2022-12-04T01:10:56.269Z,637.5
2022-12-04T01:11:58.737Z,637.2
2022-12-04T01:13:01.269Z,637
2022-12-04T01:14:03.187Z,637
2022-12-04T01:15:05.779Z,637.4
2022-12-04T01:16:08.381Z,637
2022-12-04T01:17:10.640Z,637.1
2022-12-04T01:18:12.838Z,637.5
2022-12-04T01:19:15.059Z,637.5
2022-12-04T01:20:17.277Z,637.3
2022-12-04T01:21:19.760Z,637.1
2022-12-04T01:22:22.234Z,636.5
2022-12-04T01:23:24.705Z,636.2
2022-12-04T01:24:26.889Z,636.3
2022-12-04T01:25:29.116Z,636.4
2022-12-04T01:26:31.329Z,636.7
2022-12-04T01:27:33.942Z,636.6
2022-12-04T01:28:36.457Z,636.6
2022-12-04T01:29:38.660Z,636.4
2022-12-04T01:30:41.283Z,636.1
2022-12-04T01:31:44.240Z,636.2
2022-12-04T01:32:46.729Z,636.5
2022-12-04T01:33:48.944Z,636.2
2022-12-04T01:34:51.419Z,636.5
2022-12-04T01:35:53.904Z,636.1
2022-12-04T01:36:56.113Z,636.9
2022-12-04T01:37:58.321Z,637
2022-12-04T01:39:00.531Z,636.6
2022-12-04T01:40:03.011Z,636.7
2022-12-04T01:41:04.954Z,637.2
2022-12-04T01:42:06.915Z,636.9
2022-12-04T01:43:09.125Z,636.9
2022-12-04T01:44:11.632Z,636.6
2022-12-04T01:45:14.112Z,636.2
2022-12-04T01:46:17.198Z,636.6
2022-12-04T01:47:19.711Z,636.8
2022-12-04T01:48:22.306Z,637.2
2022-12-04T01:49:24.222Z,636.9
2022-12-04T01:50:26.713Z,637.1
2022-12-04T01:51:29.197Z,638
2022-12-04T01:52:30.850Z,638.4
2022-12-04T01:53:33.323Z,638.9
2022-12-04T01:54:35.803Z,639.1
2022-12-04T01:55:38.272Z,639.6
2022-12-04T01:56:40.763Z,640.1
2022-12-04T01:57:43.246Z,639.9
2022-12-04T01:58:45.458Z,639.8
2022-12-04T01:59:47.675Z,640.2
2022-12-04T02:01:56.186Z,639.7
2022-12-04T02:02:59.222Z,639.1
2022-12-04T02:04:01.220Z,639.2
2022-12-04T02:05:03.400Z,639.2
2022-12-04T02:06:05.879Z,639.2
2022-12-04T02:07:07.787Z,638.6
2022-12-04T02:08:10.574Z,639
2022-12-04T02:09:12.808Z,639.3
2022-12-04T02:10:15.288Z,639.5
2022-12-04T02:11:17.761Z,639.6
2022-12-04T02:12:20.248Z,639.3
2022-12-04T02:13:22.762Z,639.4
2022-12-04T02:14:25.231Z,639.8
2022-12-04T02:15:27.464Z,639.5
2022-12-04T02:16:30.228Z,639.6
2022-12-04T02:17:32.852Z,639.4
2022-12-04T02:18:35.352Z,639.6
2022-12-04T02:19:37.570Z,639.4
2022-12-04T02:20:40.060Z,639.5
2022-12-04T02:21:42.551Z,639.8
2022-12-04T02:22:45.033Z,639.4
2022-12-04T02:23:46.976Z,639.1
2022-12-04T02:25:54.433Z,639.7
2022-12-04T02:26:56.909Z,640.6
2022-12-04T02:27:59.382Z,640.7
2022-12-04T02:29:01.860Z,640.7
2022-12-04T02:30:03.829Z,640.7
2022-12-04T02:31:06.707Z,640.9
2022-12-04T02:32:08.950Z,641.3
2022-12-04T02:33:17.450Z,641.4
2022-12-04T02:34:18.229Z,641.5
2022-12-04T02:35:20.705Z,641.9
2022-12-04T02:36:22.901Z,642.1
2022-12-04T02:37:25.377Z,641.8
2022-12-04T02:38:27.897Z,641.7
2022-12-04T02:39:30.374Z,641.7
2022-12-04T02:40:32.589Z,641.7
2022-12-04T02:41:35.061Z,642.5
2022-12-04T02:42:37.559Z,643.2
2022-12-04T02:43:39.772Z,642.8
2022-12-04T02:44:42.245Z,642.8
2022-12-04T02:45:44.787Z,642.7
2022-12-04T02:46:47.027Z,643.3
2022-12-04T02:47:49.499Z,643.9
2022-12-04T02:48:52.070Z,643.7
2022-12-04T02:49:56.185Z,643.4
2022-12-04T02:50:58.864Z,643.4
2022-12-04T02:52:01.067Z,642.9
2022-12-04T02:53:03.267Z,642.6
2022-12-04T02:54:05.744Z,642.7
2022-12-04T02:56:12.965Z,643.2
2022-12-04T02:57:15.477Z,643.2
2022-12-04T02:58:18.002Z,643.4
2022-12-04T02:59:20.215Z,643.4
2022-12-04T03:00:22.726Z,643.6
2022-12-04T03:01:25.841Z,643.5
2022-12-04T03:02:28.741Z,643.4
2022-12-04T03:03:31.256Z,643.8
2022-12-04T03:04:33.823Z,644.1
2022-12-04T03:05:36.342Z,644
2022-12-04T03:06:38.548Z,643.5
2022-12-04T03:07:41.163Z,643.7
2022-12-04T03:08:43.693Z,643.5
2022-12-04T03:09:46.163Z,643.5
2022-12-04T03:10:48.635Z,643.3
2022-12-04T03:11:51.120Z,643.1
2022-12-04T03:12:53.042Z,643.5
2022-12-04T03:13:54.947Z,643
2022-12-04T03:14:57.419Z,643
2022-12-04T03:15:59.896Z,643.4
2022-12-04T03:17:02.755Z,643
2022-12-04T03:18:05.019Z,642.8
2022-12-04T03:19:07.231Z,643.2
2022-12-04T03:20:09.787Z,643
2022-12-04T03:21:12.016Z,643.3
2022-12-04T03:22:14.485Z,643.1
2022-12-04T03:23:16.971Z,642.9
2022-12-04T03:24:19.173Z,643.2
2022-12-04T03:25:21.661Z,643.2
2022-12-04T03:26:23.861Z,643.4
2022-12-04T03:27:26.334Z,643.9
2022-12-04T03:28:28.264Z,644.5
2022-12-04T03:29:30.754Z,643.9
2022-12-04T03:30:32.938Z,644.4
2022-12-04T03:31:35.465Z,644.2
2022-12-04T03:32:37.944Z,643.5
2022-12-04T03:33:40.166Z,643.4
2022-12-04T03:34:42.641Z,643.3
2022-12-04T03:35:45.187Z,643.1
2022-12-04T03:36:47.704Z,643.1
2022-12-04T03:37:49.916Z,643.2
2022-12-04T03:38:52.426Z,643.4
2022-12-04T03:39:56.904Z,643.1
2022-12-04T03:40:59.508Z,642.9
2022-12-04T03:42:01.417Z,642.7
2022-12-04T03:43:03.360Z,642.7
2022-12-04T03:44:04.721Z,643.1
2022-12-04T03:45:07.201Z,643.2
2022-12-04T03:46:10.317Z,643.1
2022-12-04T03:47:12.619Z,642.9
2022-12-04T03:49:20.117Z,643.5
2022-12-04T03:50:22.592Z,643.3
2022-12-04T03:51:25.161Z,643
2022-12-04T03:52:27.693Z,643.8
2022-12-04T03:53:30.171Z,643.9
2022-12-04T03:54:32.643Z,644
2022-12-04T03:55:34.824Z,643.8
2022-12-04T03:56:37.308Z,644.2
2022-12-04T03:57:39.511Z,643.9
2022-12-04T03:58:41.988Z,644.4
2022-12-04T03:59:44.464Z,644.3
2022-12-04T04:00:46.669Z,644.3
2022-12-04T04:01:49.678Z,644.2
2022-12-04T04:02:52.568Z,644.9
2022-12-04T04:03:55.082Z,644.7
2022-12-04T04:04:57.596Z,644.6
2022-12-04T04:06:00.073Z,645.1
2022-12-04T04:07:02.336Z,645
2022-12-04T04:08:04.943Z,645
2022-12-04T04:09:07.462Z,645.2
2022-12-04T04:10:09.941Z,645.5
2022-12-04T04:11:12.418Z,645.7
2022-12-04T04:12:14.087Z,645.5
2022-12-04T04:13:16.731Z,645.9
2022-12-04T04:14:19.215Z,645.6
2022-12-04T04:15:21.694Z,645.7
2022-12-04T04:16:24.339Z,645.3
2022-12-04T04:17:26.890Z,645.4
2022-12-04T04:18:29.103Z,645.2
2022-12-04T04:19:31.586Z,645.1
2022-12-04T04:20:33.848Z,644.8
2022-12-04T04:21:36.325Z,644.5
2022-12-04T04:22:38.599Z,644.7
2022-12-04T04:23:41.104Z,645
2022-12-04T04:24:43.573Z,644.6
2022-12-04T04:25:45.765Z,644.6
2022-12-04T04:26:47.980Z,644.9
2022-12-04T04:27:50.166Z,644.8
2022-12-04T04:28:52.645Z,644.9
2022-12-04T04:29:56.677Z,645.2
2022-12-04T04:30:59.684Z,644.7
2022-12-04T04:32:01.945Z,645.2
2022-12-04T04:33:04.418Z,645.4
2022-12-04T04:34:06.893Z,644.9
2022-12-04T04:35:09.109Z,644.7
2022-12-04T04:36:11.613Z,644
2022-12-04T04:37:14.091Z,644.8
2022-12-04T04:38:16.360Z,644.4
2022-12-04T04:39:18.880Z,644.3
2022-12-04T04:40:21.365Z,644.9
2022-12-04T04:41:23.858Z,644.7
2022-12-04T04:42:25.776Z,644.6
2022-12-04T04:43:28.275Z,644.6
2022-12-04T04:44:30.487Z,645.6
2022-12-04T04:45:32.958Z,645.5
2022-12-04T04:46:35.644Z,645.5
2022-12-04T04:47:37.867Z,645.5
2022-12-04T04:48:40.066Z,645.3
2022-12-04T04:49:42.535Z,645
2022-12-04T04:50:45.027Z,645.4
2022-12-04T04:51:47.516Z,645.5
2022-12-04T04:52:49.998Z,645.4
2022-12-04T04:53:52.746Z,645.3
2022-12-04T04:54:55.243Z,645.9
2022-12-04T04:55:57.727Z,645.7
2022-12-04T04:57:00.228Z,645.7
2022-12-04T04:58:02.697Z,645.4
2022-12-04T04:59:04.878Z,645.4
2022-12-04T05:00:07.082Z,645.2
2022-12-04T05:01:09.359Z,644.9
2022-12-04T05:02:12.177Z,645
2022-12-04T05:03:15.022Z,645.2
2022-12-04T05:04:17.559Z,645.4
2022-12-04T05:05:20.002Z,645.4
2022-12-04T05:06:21.913Z,645.4
2022-12-04T05:07:24.416Z,645
2022-12-04T05:08:26.887Z,644.5
2022-12-04T05:09:29.187Z,645
2022-12-04T05:10:31.123Z,645.1
2022-12-04T05:11:33.069Z,645.2
2022-12-04T05:12:35.572Z,645.2
2022-12-04T05:13:38.054Z,644.8
2022-12-04T05:14:40.562Z,644.7
2022-12-04T05:15:42.881Z,644.6
2022-12-04T05:16:45.114Z,644.9
2022-12-04T05:17:47.589Z,645.3
2022-12-04T05:18:50.090Z,645.1
2022-12-04T05:19:53.010Z,645.9
2022-12-04T05:20:55.750Z,646
2022-12-04T05:21:58.222Z,646.3
2022-12-04T05:23:00.447Z,645.9
2022-12-04T05:24:02.928Z,645.7
2022-12-04T05:25:04.930Z,646
2022-12-04T05:26:07.438Z,645.5
2022-12-04T05:27:09.640Z,646.3
2022-12-04T05:28:12.116Z,646.2
2022-12-04T05:29:14.292Z,646.6
2022-12-04T05:30:16.878Z,646.4
2022-12-04T05:31:19.777Z,646.5
2022-12-04T05:32:22.332Z,646.6
2022-12-04T05:33:24.530Z,646.5
2022-12-04T05:34:27.085Z,645.9
2022-12-04T05:35:29.557Z,645.8
2022-12-04T05:36:31.758Z,645.9
2022-12-04T05:37:33.390Z,645.7
2022-12-04T05:38:35.906Z,645.6
2022-12-04T05:39:38.382Z,645.5
2022-12-04T05:40:40.955Z,645.7
2022-12-04T05:41:43.470Z,645.5
2022-12-04T05:42:45.986Z,645
2022-12-04T05:43:48.460Z,644.7
2022-12-04T05:44:50.937Z,644.7
2022-12-04T05:45:53.416Z,644.9
2022-12-04T05:46:56.182Z,646
2022-12-04T05:47:58.710Z,646.2
2022-12-04T05:49:00.913Z,646.4
2022-12-04T05:50:02.851Z,645.5
2022-12-04T05:51:05.068Z,645.5
2022-12-04T05:52:07.303Z,645.3
2022-12-04T05:53:09.791Z,645.5
2022-12-04T05:54:12.303Z,646.2
2022-12-04T05:55:14.769Z,645.5
2022-12-04T05:56:17.050Z,645.7
2022-12-04T05:57:19.548Z,646
2022-12-04T05:58:22.025Z,646.6
2022-12-04T05:59:24.493Z,646.6
2022-12-04T06:00:26.430Z,646.9
2022-12-04T06:01:28.930Z,646.5
2022-12-04T06:02:32.332Z,646.2
2022-12-04T06:03:35.280Z,646.2
2022-12-04T06:04:37.551Z,645.9
2022-12-04T06:05:40.033Z,645.9
2022-12-04T06:06:42.571Z,647.1
2022-12-04T06:07:45.119Z,647.4
2022-12-04T06:08:47.405Z,647.6
2022-12-04T06:09:49.624Z,647.3
2022-12-04T06:10:51.830Z,647.7
2022-12-04T06:11:54.365Z,648
2022-12-04T06:12:56.879Z,647.8
2022-12-04T06:13:59.352Z,648
2022-12-04T06:15:01.597Z,648.5
2022-12-04T06:16:04.372Z,648.2
2022-12-04T06:17:06.582Z,648
2022-12-04T06:18:08.800Z,648.3
2022-12-04T06:19:10.994Z,648.9
2022-12-04T06:20:14.421Z,648.6
2022-12-04T06:21:16.939Z,647.8
2022-12-04T06:22:19.121Z,647.2
2022-12-04T06:23:21.374Z,646
2022-12-04T06:24:23.297Z,645.6
2022-12-04T06:25:25.789Z,645.4
2022-12-04T06:26:27.730Z,645
2022-12-04T06:27:31.164Z,644.9
2022-12-04T06:28:33.688Z,644.8
2022-12-04T06:29:35.892Z,645.4
2022-12-04T06:30:38.367Z,645.2
2022-12-04T06:31:41.010Z,645.5
2022-12-04T06:32:43.234Z,645.7
2022-12-04T06:33:45.451Z,645.4
2022-12-04T06:34:47.939Z,644.9
2022-12-04T06:35:50.417Z,644.3
2022-12-04T06:36:52.893Z,643.9
2022-12-04T06:37:55.377Z,643.5
2022-12-04T06:38:57.585Z,644.3
2022-12-04T06:40:01.130Z,644.6
2022-12-04T06:41:03.337Z,644.4
2022-12-04T06:42:05.822Z,644.8
2022-12-04T06:43:07.826Z,645.3
2022-12-04T06:44:10.347Z,646
2022-12-04T06:45:12.808Z,646.2
2022-12-04T06:46:15.760Z,646.4
2022-12-04T06:47:17.717Z,646
2022-12-04T06:48:20.213Z,645.4
2022-12-04T06:49:22.495Z,645
2022-12-04T06:50:25.026Z,644.6
2022-12-04T06:51:27.234Z,644.5
2022-12-04T06:52:29.709Z,644.6
2022-12-04T06:53:32.223Z,645.1
2022-12-04T06:54:34.413Z,646
2022-12-04T06:55:36.599Z,647
2022-12-04T06:56:39.107Z,647.5
2022-12-04T06:57:41.586Z,647.2
2022-12-04T06:58:43.863Z,646.3
2022-12-04T06:59:46.085Z,646.7
2022-12-04T07:00:48.336Z,646.3
2022-12-04T07:01:51.324Z,645.7
2022-12-04T07:02:54.068Z,645.8
2022-12-04T07:03:56.622Z,646.2
2022-12-04T07:04:58.821Z,646.9
2022-12-04T07:06:01.304Z,646.5
2022-12-04T07:07:03.527Z,646.6
2022-12-04T07:08:06.489Z,646.2
2022-12-04T07:09:09.004Z,646
2022-12-04T07:10:11.487Z,645.6
2022-12-04T07:11:13.693Z,645.9
2022-12-04T07:12:15.913Z,646
2022-12-04T07:13:18.381Z,644.9
2022-12-04T07:14:20.957Z,644.2
2022-12-04T07:15:23.468Z,644.4
2022-12-04T07:16:26.026Z,644.8
2022-12-04T07:17:28.522Z,645.3
2022-12-04T07:18:31.011Z,645.6
2022-12-04T07:19:33.499Z,645.7
2022-12-04T07:20:35.988Z,645.5
2022-12-04T07:21:38.188Z,645.9
2022-12-04T07:22:40.672Z,646
2022-12-04T07:23:43.150Z,646.3
2022-12-04T07:24:45.621Z,646.3
2022-12-04T07:25:48.095Z,646.1
2022-12-04T07:26:50.276Z,645.6
2022-12-04T07:27:52.776Z,645.6
2022-12-04T07:28:55.033Z,645.4
2022-12-04T07:29:58.903Z,645.5
2022-12-04T07:31:01.115Z,645.3
2022-12-04T07:32:04.189Z,645.9
2022-12-04T07:33:06.481Z,646
2022-12-04T07:34:08.397Z,646.3
2022-12-04T07:35:10.667Z,645.8
2022-12-04T07:36:13.316Z,645.8
2022-12-04T07:37:15.790Z,645.8
2022-12-04T07:38:18.269Z,645.9
2022-12-04T07:39:20.507Z,645.9
2022-12-04T07:40:22.444Z,646
2022-12-04T07:41:24.663Z,645.7
2022-12-04T07:42:27.140Z,645.1
2022-12-04T07:43:29.631Z,645
2022-12-04T07:44:32.119Z,644
2022-12-04T07:45:34.970Z,643.6
2022-12-04T07:46:37.410Z,643.8
2022-12-04T07:47:39.879Z,644.3
2022-12-04T07:48:42.366Z,643.9
2022-12-04T07:49:44.577Z,643.4
2022-12-04T07:50:46.795Z,642.8
2022-12-04T07:51:49.274Z,641.9
2022-12-04T07:52:51.764Z,641.6
2022-12-04T07:53:54.280Z,641.8
2022-12-04T07:54:56.202Z,642.3
2022-12-04T07:55:58.401Z,643.1
2022-12-04T07:57:00.897Z,643.5
2022-12-04T07:58:03.389Z,644
2022-12-04T07:59:05.665Z,644.7
2022-12-04T08:00:08.143Z,644.6
2022-12-04T08:01:10.851Z,644.8
2022-12-04T08:02:13.454Z,644.7
2022-12-04T08:03:15.103Z,644.3
2022-12-04T08:04:17.507Z,644.6
2022-12-04T08:05:20.024Z,644.3
2022-12-04T08:06:22.233Z,643.8
2022-12-04T08:07:24.713Z,643.9
2022-12-04T08:08:27.208Z,644.5
2022-12-04T08:09:29.423Z,645
2022-12-04T08:10:31.950Z,644.8
2022-12-04T08:11:34.426Z,644.4
2022-12-04T08:12:36.602Z,644.2
2022-12-04T08:13:38.787Z,644.9
2022-12-04T08:14:41.294Z,644.8
2022-12-04T08:15:43.760Z,644.9
2022-12-04T08:17:51.312Z,644.3
2022-12-04T08:18:53.543Z,644.3
2022-12-04T08:19:58.062Z,644.8
2022-12-04T08:21:00.752Z,644.7
2022-12-04T08:22:03.245Z,644.9
2022-12-04T08:23:05.447Z,644.5
2022-12-04T08:24:07.927Z,644.1
2022-12-04T08:25:10.108Z,643.9
2022-12-04T08:26:12.599Z,644.5
2022-12-04T08:27:14.798Z,644.9
2022-12-04T08:28:17.279Z,645.4
2022-12-04T08:29:19.187Z,645
2022-12-04T08:30:21.700Z,644.7
2022-12-04T08:31:24.506Z,645.1
2022-12-04T08:32:26.782Z,645.7
2022-12-04T08:33:29.368Z,645.8
2022-12-04T08:34:31.847Z,646
2022-12-04T08:35:34.370Z,645.9
2022-12-04T08:36:36.582Z,646.1
2022-12-04T08:37:38.797Z,645.2
2022-12-04T08:38:41.271Z,644.3
2022-12-04T08:39:43.220Z,644.1
2022-12-04T08:40:45.438Z,643.1
2022-12-04T08:42:56.536Z,641.3
2022-12-04T08:43:59.126Z,641.1
2022-12-04T08:45:01.603Z,641.5
2022-12-04T08:46:04.536Z,642.1
2022-12-04T08:47:07.073Z,642.6
2022-12-04T08:48:09.547Z,642.8
2022-12-04T08:50:18.307Z,643
2022-12-04T08:51:20.517Z,643.1
2022-12-04T08:52:22.729Z,643.9
2022-12-04T08:53:25.259Z,644
2022-12-04T08:55:35.243Z,644.2
2022-12-04T08:56:37.425Z,643.2
2022-12-04T08:57:39.910Z,643.1
2022-12-04T08:58:41.563Z,643
2022-12-04T08:59:44.042Z,643.5
2022-12-04T09:00:46.259Z,643.6
2022-12-04T09:01:48.794Z,643.1
2022-12-04T09:02:51.048Z,643.1
2022-12-04T09:03:53.906Z,642.5
2022-12-04T09:04:56.981Z,642.7
2022-12-04T09:05:59.298Z,642.8
2022-12-04T09:07:01.765Z,643
2022-12-04T09:08:04.733Z,643.9
2022-12-04T09:09:06.976Z,645.2
2022-12-04T09:10:09.179Z,645.6
2022-12-04T09:11:11.676Z,646.5
2022-12-04T09:12:14.213Z,646.5
2022-12-04T09:13:16.202Z,646.9
2022-12-04T09:14:18.740Z,647
2022-12-04T09:15:21.247Z,646.1
2022-12-04T09:16:24.505Z,644.8
2022-12-04T09:17:27.115Z,643.2
2022-12-04T09:18:29.045Z,642.8
2022-12-04T09:19:31.264Z,642.8
2022-12-04T09:20:33.802Z,642.7
2022-12-04T09:21:36.058Z,642.8
2022-12-04T09:23:43.519Z,643.7
2022-12-04T09:24:45.743Z,642.6
2022-12-04T09:25:47.415Z,642.4
2022-12-04T09:26:49.623Z,642
2022-12-04T09:27:51.833Z,641.8
2022-12-04T09:28:54.077Z,641.1
2022-12-04T09:29:58.670Z,640.9
2022-12-04T09:31:01.572Z,641.4
2022-12-04T09:32:03.789Z,642.6
2022-12-04T09:33:06.013Z,643.3
2022-12-04T09:34:08.489Z,644.3
2022-12-04T09:35:10.736Z,644.8
2022-12-04T09:36:13.267Z,645
2022-12-04T09:37:15.803Z,644.8
2022-12-04T09:38:18.302Z,644.3
2022-12-04T09:39:20.855Z,643.9
2022-12-04T09:40:23.062Z,643.9
2022-12-04T09:41:25.285Z,644.9
2022-12-04T09:42:27.513Z,646.3
2022-12-04T09:43:29.703Z,646.8
2022-12-04T09:44:32.198Z,647.2
2022-12-04T09:45:34.440Z,647.4
2022-12-04T09:46:39.527Z,647.8
2022-12-04T09:47:41.843Z,648
2022-12-04T09:48:44.078Z,648
2022-12-04T09:49:46.564Z,647.9
2022-12-04T09:50:49.066Z,648.3
2022-12-04T09:51:51.596Z,647.8
2022-12-04T09:52:54.138Z,647.3
2022-12-04T09:53:56.605Z,646.9
2022-12-04T09:54:59.115Z,646.9
2022-12-04T09:56:01.633Z,646.7
2022-12-04T09:57:04.132Z,646.6
2022-12-04T09:58:06.340Z,646.1
2022-12-04T09:59:08.552Z,645.2
2022-12-04T10:00:10.790Z,644.4
2022-12-04T10:01:13.308Z,643.8
2022-12-04T10:02:16.145Z,645.2
2022-12-04T10:03:19.368Z,645.8
2022-12-04T10:04:22.560Z,646.3
2022-12-04T10:05:25.109Z,646.8
2022-12-04T10:06:27.596Z,647.1
2022-12-04T10:07:30.750Z,647.8
2022-12-04T10:08:33.327Z,648.1
2022-12-04T10:09:35.809Z,648.7
2022-12-04T10:10:37.745Z,648.5
2022-12-04T10:11:39.948Z,648.7
2022-12-04T10:12:42.162Z,648.5
2022-12-04T10:13:44.096Z,648.7
2022-12-04T10:14:46.319Z,648.5
2022-12-04T10:15:48.669Z,649.2
2022-12-04T10:16:51.200Z,649.2
2022-12-04T10:17:53.136Z,649
2022-12-04T10:18:55.079Z,649.3
2022-12-04T10:19:59.190Z,648.8
2022-12-04T10:21:01.758Z,650.1
2022-12-04T10:22:04.236Z,651.2
2022-12-04T10:24:11.525Z,652
2022-12-04T10:25:14.004Z,652.3
2022-12-04T10:26:16.506Z,651.8
2022-12-04T10:27:18.723Z,651
2022-12-04T10:28:20.942Z,650.7
2022-12-04T10:29:23.137Z,650.9
2022-12-04T10:30:25.823Z,650.7
2022-12-04T10:31:28.860Z,650.9
2022-12-04T10:32:30.812Z,651.5
2022-12-04T10:33:33.334Z,651.2
2022-12-04T10:34:36.703Z,651.2
2022-12-04T10:35:40.565Z,650.9
2022-12-04T10:36:42.763Z,650.5
2022-12-04T10:37:45.252Z,650
2022-12-04T10:38:47.777Z,650
2022-12-04T10:39:50.381Z,650.3
2022-12-04T10:40:52.857Z,651.1
2022-12-04T10:41:55.086Z,651.3
2022-12-04T10:42:57.617Z,651.5
2022-12-04T10:43:59.541Z,652.2
2022-12-04T10:45:02.038Z,652.1
2022-12-04T10:46:04.712Z,652
2022-12-04T10:47:07.706Z,652.1
2022-12-04T10:48:09.922Z,652.6
2022-12-04T10:49:11.859Z,652.3
2022-12-04T10:50:14.340Z,652.2
2022-12-04T10:51:16.848Z,652.7
2022-12-04T10:52:19.324Z,652.9
2022-12-04T10:53:21.810Z,653.8
2022-12-04T10:54:24.031Z,654
2022-12-04T10:55:26.611Z,654.1
2022-12-04T10:56:28.607Z,654.5
2022-12-04T10:57:30.527Z,654.4
2022-12-04T10:58:32.995Z,654.9
2022-12-04T10:59:35.230Z,655
2022-12-04T11:00:37.161Z,656
2022-12-04T11:01:39.703Z,656.2
2022-12-04T11:02:43.077Z,656.6
2022-12-04T11:03:46.202Z,656.6
2022-12-04T11:04:48.712Z,656
2022-12-04T11:05:51.214Z,655.8
2022-12-04T11:06:53.164Z,654.7
2022-12-04T11:07:56.129Z,654.3
2022-12-04T11:08:58.410Z,654.4
2022-12-04T11:10:01.024Z,654.1
2022-12-04T11:11:03.693Z,654.1
2022-12-04T11:12:06.197Z,653.8
2022-12-04T11:13:08.671Z,653
2022-12-04T11:14:10.896Z,653.4
2022-12-04T11:15:13.385Z,653.8
2022-12-04T11:16:16.175Z,654
2022-12-04T11:17:18.133Z,653.7
2022-12-04T11:18:20.629Z,652.9
2022-12-04T11:19:22.570Z,652.3
2022-12-04T11:20:24.762Z,652.3
2022-12-04T11:21:27.244Z,652
2022-12-04T11:22:28.906Z,651.7
2022-12-04T11:23:30.858Z,651.5
2022-12-04T11:24:33.061Z,651.1
2022-12-04T11:25:35.566Z,651.5
2022-12-04T11:26:37.853Z,651.7
2022-12-04T11:27:40.368Z,652.1
2022-12-04T11:28:44.877Z,652.3
2022-12-04T11:29:47.353Z,652.8
2022-12-04T11:30:49.593Z,652.9
2022-12-04T11:31:52.653Z,653
2022-12-04T11:32:55.162Z,652.6
2022-12-04T11:33:57.681Z,652.2
2022-12-04T11:35:00.174Z,652.3
2022-12-04T11:36:02.657Z,652.1
2022-12-04T11:37:04.867Z,651.9
2022-12-04T11:38:06.811Z,652.1
2022-12-04T11:39:08.788Z,652.5
2022-12-04T11:40:11.301Z,653.1
2022-12-04T11:41:13.784Z,653.3
2022-12-04T11:42:16.372Z,653.6
2022-12-04T11:43:18.901Z,653.7
2022-12-04T11:44:21.110Z,653.8
2022-12-04T11:45:23.344Z,654.3
2022-12-04T11:46:25.930Z,654.2
2022-12-04T11:47:27.812Z,653.4
2022-12-04T11:48:30.296Z,653.5
2022-12-04T11:49:32.808Z,653.5
2022-12-04T11:50:36.040Z,654.2
2022-12-04T11:51:38.252Z,654.2
2022-12-04T11:52:40.471Z,653.9
2022-12-04T11:53:42.745Z,653.9
2022-12-04T11:54:44.997Z,655.1
2022-12-04T11:55:46.987Z,655.8
2022-12-04T11:56:49.191Z,654.8
2022-12-04T11:57:51.796Z,654.8
2022-12-04T11:58:53.720Z,654.7
2022-12-04T11:59:58.003Z,654.5
2022-12-04T12:01:00.745Z,654.8
2022-12-04T12:02:04.049Z,655.3
2022-12-04T12:03:07.489Z,656.3
2022-12-04T12:04:10.060Z,656.4
2022-12-04T12:05:12.259Z,656.6
2022-12-04T12:06:14.737Z,657.1
2022-12-04T12:07:16.405Z,657.1
2022-12-04T12:08:18.330Z,656.8
2022-12-04T12:09:20.845Z,656.8
2022-12-04T12:10:23.051Z,656.4
2022-12-04T12:11:25.545Z,656.1
2022-12-04T12:12:28.085Z,656.2
2022-12-04T12:13:30.687Z,656.4
2022-12-04T12:14:32.888Z,656.3
2022-12-04T12:15:35.082Z,657
2022-12-04T12:16:37.942Z,656.7
2022-12-04T12:17:40.424Z,657.3
2022-12-04T12:18:42.631Z,657.5
2022-12-04T12:19:44.833Z,657.7
2022-12-04T12:20:46.778Z,657.5
2022-12-04T12:21:48.976Z,657.3
2022-12-04T12:22:51.181Z,657
2022-12-04T12:23:53.656Z,657.7
2022-12-04T12:24:57.426Z,657.3
2022-12-04T12:26:00.045Z,657.5
2022-12-04T12:27:02.584Z,657.8
2022-12-04T12:28:05.287Z,657.8
2022-12-04T12:29:08.063Z,658.1
2022-12-04T12:30:10.272Z,657.8
2022-12-04T12:31:12.207Z,657.6
2022-12-04T12:32:14.360Z,657.8
2022-12-04T12:33:16.861Z,657.4
2022-12-04T12:34:19.341Z,657.4
2022-12-04T12:35:21.835Z,657.7
2022-12-04T12:36:24.321Z,658
2022-12-04T12:37:26.908Z,658.3
2022-12-04T12:38:29.483Z,658.1
2022-12-04T12:39:32.002Z,658.2
2022-12-04T12:40:34.520Z,658
2022-12-04T12:41:36.727Z,657.5
2022-12-04T12:42:39.239Z,657.1
2022-12-04T12:43:42.149Z,656.9
2022-12-04T12:44:44.767Z,656.9
2022-12-04T12:45:47.090Z,657.6
2022-12-04T12:46:48.483Z,657.9
2022-12-04T12:47:50.770Z,658.1
2022-12-04T12:49:59.688Z,658
2022-12-04T12:52:07.166Z,658.6
2022-12-04T12:53:09.643Z,658.3
2022-12-04T12:54:12.125Z,659
2022-12-04T12:55:14.716Z,659.4
2022-12-04T12:56:17.227Z,659.7
2022-12-04T12:57:19.448Z,659.4
2022-12-04T12:58:21.646Z,659.4
2022-12-04T12:59:23.634Z,658.9
2022-12-04T13:00:26.214Z,659.3
2022-12-04T13:01:28.996Z,659.1
2022-12-04T13:02:32.078Z,659.3
2022-12-04T13:03:34.346Z,659.6
2022-12-04T13:04:36.829Z,659.3
2022-12-04T13:05:39.453Z,659.2
2022-12-04T13:06:41.665Z,659.4
2022-12-04T13:07:44.091Z,659.7
2022-12-04T13:09:51.599Z,659.9
2022-12-04T13:10:53.525Z,660.4
2022-12-04T13:11:56.042Z,660.1
2022-12-04T13:12:58.546Z,660.6
2022-12-04T13:14:00.754Z,660.9
2022-12-04T13:15:03.256Z,661.2
2022-12-04T13:16:06.001Z,661.8
2022-12-04T13:17:09.036Z,661.7
2022-12-04T13:18:11.563Z,660.9
2022-12-04T13:19:14.047Z,660.4
2022-12-04T13:20:16.689Z,659.9
2022-12-04T13:21:18.893Z,659.6
2022-12-04T13:22:20.840Z,659.1
2022-12-04T13:23:22.765Z,659.4
2022-12-04T13:24:25.354Z,659.2
2022-12-04T13:25:27.633Z,659.4
2022-12-04T13:26:29.836Z,659.3
2022-12-04T13:27:32.079Z,660.2
2022-12-04T13:28:34.321Z,660.1
2022-12-04T13:29:36.541Z,659.8
2022-12-04T13:30:39.015Z,659.2
2022-12-04T13:31:41.712Z,658.6
2022-12-04T13:32:43.955Z,658.8
2022-12-04T13:33:45.892Z,658.9
2022-12-04T13:34:48.112Z,658.6
2022-12-04T13:35:50.316Z,658.7
2022-12-04T13:36:52.895Z,658.6
2022-12-04T13:37:55.104Z,658.1
2022-12-04T13:40:02.558Z,658.1
2022-12-04T13:41:04.498Z,658.3
2022-12-04T13:42:06.727Z,658.2
2022-12-04T13:43:08.948Z,658.3
2022-12-04T13:44:11.164Z,658.4
2022-12-04T13:45:13.471Z,659.2